createdAt,value
2018-06-09T00:01:39.425Z,17.60
2018-06-09T00:04:07.719Z,17.40
2018-06-09T00:06:35.998Z,17.30
2018-06-09T00:09:05.818Z,17.30
2018-06-09T00:11:34.095Z,17.40
2018-06-09T00:14:02.374Z,17.30
2018-06-09T00:16:30.661Z,17.40
2018-06-09T00:18:58.934Z,17.30
2018-06-09T00:21:27.197Z,17.40
2018-06-09T00:23:55.459Z,17.30
2018-06-09T00:26:23.721Z,17.30
2018-06-09T00:28:51.986Z,17.30
2018-06-09T00:31:20.258Z,17.20
2018-06-09T00:33:48.527Z,17.20
2018-06-09T00:36:16.870Z,17.20
2018-06-09T00:38:45.127Z,17.20
2018-06-09T00:41:13.395Z,17.20
2018-06-09T00:43:41.704Z,17.10
2018-06-09T00:46:09.983Z,17.00
2018-06-09T00:48:38.253Z,16.90
2018-06-09T00:51:06.519Z,16.90
2018-06-09T00:53:34.802Z,16.90
2018-06-09T00:56:44.495Z,16.80
2018-06-09T00:59:12.766Z,16.70
2018-06-09T01:01:41.023Z,16.60
2018-06-09T01:04:09.279Z,16.70
2018-06-09T01:06:37.531Z,16.70
2018-06-09T01:09:07.663Z,16.70
2018-06-09T01:11:36.070Z,16.70
2018-06-09T01:14:04.378Z,16.60
2018-06-09T01:16:32.645Z,16.50
2018-06-09T01:23:57.158Z,16.50
2018-06-09T01:26:25.446Z,16.50
2018-06-09T01:28:53.719Z,16.60
2018-06-09T01:31:22.966Z,16.60
2018-06-09T01:33:51.253Z,16.60
2018-06-09T01:36:19.519Z,16.60
2018-06-09T01:38:47.786Z,16.60
2018-06-09T01:41:16.056Z,16.50
2018-06-09T01:43:44.330Z,16.60
2018-06-09T01:46:12.681Z,16.50
2018-06-09T01:48:40.955Z,16.50
2018-06-09T01:51:09.226Z,16.50
2018-06-09T01:53:37.594Z,16.50
2018-06-09T01:56:05.864Z,16.50
2018-06-09T02:01:02.138Z,16.40
2018-06-09T02:03:30.405Z,16.40
2018-06-09T02:05:58.685Z,16.50
2018-06-09T02:10:54.961Z,16.30
2018-06-09T02:13:23.217Z,16.30
2018-06-09T02:15:51.496Z,16.30
2018-06-09T02:18:19.775Z,16.30
2018-06-09T02:20:48.029Z,16.30
2018-06-09T02:23:16.274Z,16.30
2018-06-09T02:25:44.526Z,16.20
2018-06-09T02:28:12.779Z,16.20
2018-06-09T02:30:41.115Z,16.10
2018-06-09T02:33:09.382Z,16.00
2018-06-09T02:35:37.652Z,16.00
2018-06-09T02:38:05.920Z,15.90
2018-06-09T02:40:34.191Z,15.90
2018-06-09T02:43:02.553Z,15.90
2018-06-09T02:47:58.863Z,15.90
2018-06-09T02:50:27.770Z,15.80
2018-06-09T02:52:56.044Z,15.70
2018-06-09T02:55:24.322Z,15.70
2018-06-09T02:57:52.587Z,15.60
2018-06-09T03:00:20.865Z,15.60
2018-06-09T03:02:49.469Z,15.50
2018-06-09T03:05:17.738Z,15.60
2018-06-09T03:07:46.064Z,15.60
2018-06-09T03:10:14.346Z,15.70
2018-06-09T03:12:42.624Z,15.60
2018-06-09T03:15:10.896Z,15.60
2018-06-09T03:20:07.183Z,15.50
2018-06-09T03:22:35.462Z,15.40
2018-06-09T03:25:03.770Z,15.40
2018-06-09T03:27:32.038Z,15.50
2018-06-09T03:30:00.352Z,15.50
2018-06-09T03:32:28.636Z,15.50
2018-06-09T03:34:56.894Z,15.60
2018-06-09T03:37:25.154Z,15.60
2018-06-09T03:39:53.417Z,15.60
2018-06-09T03:42:22.144Z,15.70
2018-06-09T03:44:50.433Z,15.70
2018-06-09T03:47:18.697Z,15.70
2018-06-09T03:49:46.961Z,15.70
2018-06-09T03:52:15.226Z,15.70
2018-06-09T03:54:43.526Z,15.70
2018-06-09T03:57:11.801Z,15.80
2018-06-09T03:59:40.079Z,15.80
2018-06-09T04:02:08.361Z,15.80
2018-06-09T04:04:36.627Z,15.80
2018-06-09T04:07:04.899Z,15.80
2018-06-09T04:09:33.166Z,15.80
2018-06-09T04:12:01.451Z,15.80
2018-06-09T04:14:29.812Z,15.80
2018-06-09T04:16:58.238Z,15.90
2018-06-09T04:19:26.517Z,15.90
2018-06-09T04:21:54.806Z,15.90
2018-06-09T04:24:23.082Z,15.90
2018-06-09T04:26:51.352Z,15.90
2018-06-09T04:29:19.767Z,16.00
2018-06-09T04:31:48.133Z,16.00
2018-06-09T04:34:16.406Z,16.00
2018-06-09T04:36:44.678Z,16.10
2018-06-09T04:39:12.966Z,16.20
2018-06-09T04:44:09.313Z,16.30
2018-06-09T04:46:37.590Z,16.40
2018-06-09T04:49:05.867Z,16.50
2018-06-09T04:51:34.131Z,16.60
2018-06-09T04:54:02.414Z,16.70
2018-06-09T04:56:30.678Z,16.80
2018-06-09T04:58:58.982Z,16.80
2018-06-09T05:01:27.412Z,16.90
2018-06-09T05:03:55.695Z,17.00
2018-06-09T05:06:23.962Z,17.20
2018-06-09T05:08:52.246Z,17.20
2018-06-09T05:11:21.702Z,17.30
2018-06-09T05:13:49.974Z,17.50
2018-06-09T05:16:18.231Z,17.60
2018-06-09T05:18:46.505Z,17.70
2018-06-09T05:21:14.779Z,17.80
2018-06-09T05:23:43.048Z,17.90
2018-06-09T05:26:11.318Z,18.00
2018-06-09T05:28:39.594Z,18.10
2018-06-09T05:31:07.885Z,18.20
2018-06-09T05:33:36.167Z,18.20
2018-06-09T05:36:04.506Z,18.40
2018-06-09T05:38:32.809Z,18.40
2018-06-09T05:41:01.797Z,18.60
2018-06-09T05:43:31.600Z,18.70
2018-06-09T05:46:00.688Z,18.90
2018-06-09T05:48:28.962Z,19.00
2018-06-09T05:50:57.243Z,19.10
2018-06-09T05:53:25.517Z,19.30
2018-06-09T05:55:53.798Z,19.50
2018-06-09T05:58:22.139Z,19.70
2018-06-09T06:00:50.494Z,19.70
2018-06-09T06:05:46.843Z,20.30
2018-06-09T06:08:15.150Z,20.70
2018-06-09T06:10:43.420Z,21.10
2018-06-09T06:13:11.876Z,21.20
2018-06-09T06:15:40.150Z,21.90
2018-06-09T06:18:08.415Z,22.90
2018-06-09T06:20:36.680Z,24.10
2018-06-09T06:23:04.951Z,24.80
2018-06-09T06:25:33.215Z,24.90
2018-06-09T06:28:01.516Z,26.30
2018-06-09T06:30:29.847Z,27.10
2018-06-09T06:32:58.236Z,28.10
2018-06-09T06:35:26.506Z,28.60
2018-06-09T06:37:54.795Z,29.60
2018-06-09T06:40:23.210Z,30.70
2018-06-09T06:42:52.113Z,30.90
2018-06-09T06:45:20.383Z,30.90
2018-06-09T06:47:48.761Z,31.40
2018-06-09T06:50:17.478Z,31.50
2018-06-09T06:52:45.698Z,32.00
2018-06-09T06:55:13.985Z,32.50
2018-06-09T06:57:42.253Z,32.40
2018-06-09T07:00:10.535Z,33.00
2018-06-09T07:02:38.818Z,33.00
2018-06-09T07:05:07.095Z,32.70
2018-06-09T07:10:26.319Z,34.20
2018-06-09T07:12:54.578Z,35.10
2018-06-09T07:15:22.873Z,35.60
2018-06-09T07:17:51.712Z,35.60
2018-06-09T07:20:19.978Z,34.30
2018-06-09T07:25:17.130Z,34.20
2018-06-09T07:27:45.521Z,34.00
2018-06-09T07:30:13.794Z,33.90
2018-06-09T07:32:42.186Z,33.70
2018-06-09T07:35:10.480Z,33.10
2018-06-09T07:37:38.899Z,33.40
2018-06-09T07:40:07.199Z,34.90
2018-06-09T07:42:35.449Z,36.20
2018-06-09T07:45:04.145Z,36.50
2018-06-09T07:47:34.241Z,36.30
2018-06-09T07:50:02.652Z,37.20
2018-06-09T07:52:30.906Z,36.50
2018-06-09T07:54:59.169Z,37.50
2018-06-09T07:57:29.412Z,38.10
2018-06-09T07:59:57.847Z,38.90
2018-06-09T08:02:26.278Z,38.70
2018-06-09T08:04:54.538Z,37.90
2018-06-09T08:07:22.775Z,38.50
2018-06-09T08:09:51.029Z,38.00
2018-06-09T08:12:19.275Z,38.50
2018-06-09T08:14:47.518Z,37.70
2018-06-09T08:17:15.774Z,37.00
2018-06-09T08:19:44.028Z,38.00
2018-06-09T08:22:12.298Z,38.70
2018-06-09T08:24:40.545Z,38.40
2018-06-09T08:27:08.891Z,39.70
2018-06-09T08:29:37.147Z,40.20
2018-06-09T08:32:05.535Z,39.60
2018-06-09T08:34:33.790Z,40.50
2018-06-09T08:37:02.064Z,39.30
2018-06-09T08:41:58.388Z,40.50
2018-06-09T08:44:26.657Z,41.00
2018-06-09T08:46:54.925Z,41.90
2018-06-09T08:49:23.179Z,41.50
2018-06-09T08:51:51.418Z,41.50
2018-06-09T08:54:19.668Z,42.00
2018-06-09T08:56:47.927Z,42.90
2018-06-09T08:59:16.182Z,43.30
2018-06-09T09:01:44.426Z,44.20
2018-06-09T09:04:19.125Z,43.40
2018-06-09T09:06:47.375Z,42.90
2018-06-09T09:09:15.633Z,43.00
2018-06-09T09:11:43.961Z,44.10
2018-06-09T09:14:12.222Z,43.80
2018-06-09T09:16:40.465Z,43.50
2018-06-09T09:19:08.832Z,41.20
2018-06-09T09:21:37.150Z,41.30
2018-06-09T09:24:05.409Z,41.60
2018-06-09T09:26:33.939Z,41.60
2018-06-09T09:29:02.212Z,41.90
2018-06-09T09:31:30.474Z,42.50
2018-06-09T09:33:58.874Z,41.60
2018-06-09T09:36:27.156Z,41.30
2018-06-09T09:38:55.399Z,41.60
2018-06-09T09:41:23.637Z,41.40
2018-06-09T09:43:52.185Z,40.80
2018-06-09T09:46:20.438Z,39.50
2018-06-09T09:48:48.698Z,38.40
2018-06-09T09:51:16.954Z,39.10
2018-06-09T09:53:45.205Z,40.20
2018-06-09T09:56:13.446Z,41.50
2018-06-09T09:58:41.708Z,41.80
2018-06-09T10:01:10.002Z,40.80
2018-06-09T10:06:29.059Z,41.80
2018-06-09T10:08:57.341Z,41.10
2018-06-09T10:11:25.604Z,40.10
2018-06-09T10:13:53.887Z,41.10
2018-06-09T10:16:22.211Z,42.20
2018-06-09T10:18:50.563Z,42.50
2018-06-09T10:21:18.878Z,43.60
2018-06-09T10:23:47.170Z,42.90
2018-06-09T10:26:15.471Z,41.90
2018-06-09T10:28:43.839Z,42.30
2018-06-09T10:31:12.126Z,43.60
2018-06-09T10:33:40.415Z,43.60
2018-06-09T10:36:08.716Z,40.20
2018-06-09T10:38:37.058Z,37.30
2018-06-09T10:41:05.302Z,36.60
2018-06-09T10:43:34.151Z,35.80
2018-06-09T10:46:02.442Z,36.10
2018-06-09T10:48:30.739Z,37.90
2018-06-09T10:50:59.059Z,39.60
2018-06-09T10:53:27.362Z,41.50
2018-06-09T10:55:57.044Z,43.40
2018-06-09T10:58:25.355Z,43.80
2018-06-09T11:00:53.645Z,43.40
2018-06-09T11:05:50.178Z,40.80
2018-06-09T11:08:18.467Z,38.90
2018-06-09T11:10:46.782Z,37.60
2018-06-09T11:13:15.071Z,36.80
2018-06-09T11:18:11.371Z,34.80
2018-06-09T11:20:39.659Z,35.80
2018-06-09T11:23:07.953Z,36.40
2018-06-09T11:25:36.245Z,36.60
2018-06-09T11:28:04.607Z,37.20
2018-06-09T11:30:32.900Z,37.80
2018-06-09T11:33:01.247Z,37.80
2018-06-09T11:35:29.544Z,38.40
2018-06-09T11:37:57.884Z,39.50
2018-06-09T11:40:26.185Z,39.80
2018-06-09T11:42:54.462Z,40.20
2018-06-09T11:45:23.052Z,38.70
2018-06-09T11:47:51.351Z,38.00
2018-06-09T11:50:19.772Z,37.20
2018-06-09T11:55:15.223Z,37.00
2018-06-09T11:57:43.500Z,37.90
2018-06-09T12:00:11.830Z,38.90
2018-06-09T12:02:40.105Z,39.60
2018-06-09T12:05:08.392Z,39.70
2018-06-09T12:07:36.696Z,39.90
2018-06-09T12:10:05.015Z,39.50
2018-06-09T12:12:33.297Z,38.80
2018-06-09T12:15:01.573Z,38.50
2018-06-09T12:17:29.863Z,37.60
2018-06-09T12:19:58.187Z,35.70
2018-06-09T12:22:26.500Z,34.60
2018-06-09T12:24:54.840Z,33.00
2018-06-09T12:27:23.124Z,32.00
2018-06-09T12:29:51.425Z,31.20
2018-06-09T12:32:19.710Z,30.80
2018-06-09T12:34:48.002Z,30.50
2018-06-09T12:37:16.532Z,30.80
2018-06-09T12:39:44.948Z,31.50
2018-06-09T12:42:13.244Z,31.70
2018-06-09T12:44:42.314Z,31.40
2018-06-09T12:47:10.679Z,31.30
2018-06-09T12:49:39.012Z,30.90
2018-06-09T12:52:07.419Z,30.50
2018-06-09T12:54:35.797Z,30.40
2018-06-09T12:57:04.117Z,30.20
2018-06-09T12:59:32.411Z,29.90
2018-06-09T13:02:00.711Z,29.70
2018-06-09T13:04:29.022Z,29.60
2018-06-09T13:06:57.381Z,29.20
2018-06-09T13:09:25.653Z,28.80
2018-06-09T13:11:53.959Z,28.60
2018-06-09T13:14:22.234Z,28.40
2018-06-09T13:16:50.569Z,28.20
2018-06-09T13:19:18.870Z,28.10
2018-06-09T13:21:47.219Z,27.90
2018-06-09T13:24:15.524Z,28.00
2018-06-09T13:26:43.805Z,27.80
2018-06-09T13:29:12.148Z,27.90
2018-06-09T13:31:40.444Z,27.80
2018-06-09T13:34:08.730Z,27.80
2018-06-09T13:36:37.007Z,27.80
2018-06-09T13:39:07.272Z,28.00
2018-06-09T13:41:36.039Z,28.20
2018-06-09T13:44:04.355Z,28.40
2018-06-09T13:46:32.644Z,28.10
2018-06-09T13:49:00.958Z,28.10
2018-06-09T13:51:29.262Z,28.00
2018-06-09T13:53:57.669Z,28.00
2018-06-09T13:56:25.982Z,28.10
2018-06-09T13:58:54.983Z,28.10
2018-06-09T14:01:23.251Z,28.30
2018-06-09T14:03:51.567Z,28.30
2018-06-09T14:06:19.890Z,28.40
2018-06-09T14:08:48.180Z,28.30
2018-06-09T14:11:16.523Z,28.30
2018-06-09T14:13:44.824Z,28.40
2018-06-09T14:16:13.184Z,28.50
2018-06-09T14:18:41.489Z,28.50
2018-06-09T14:21:09.767Z,28.60
2018-06-09T14:23:38.119Z,28.60
2018-06-09T14:26:06.387Z,28.70
2018-06-09T14:28:34.654Z,28.60
2018-06-09T14:31:02.926Z,28.20
2018-06-09T14:33:31.214Z,28.10
2018-06-09T14:35:59.607Z,28.00
2018-06-09T14:38:27.938Z,27.60
2018-06-09T14:43:24.331Z,26.90
2018-06-09T14:45:52.658Z,26.50
2018-06-09T14:51:11.667Z,26.20
2018-06-09T14:58:35.989Z,25.80
2018-06-09T15:01:04.250Z,25.70
2018-06-09T15:03:32.515Z,25.70
2018-06-09T15:06:00.795Z,25.50
2018-06-09T15:08:29.150Z,25.40
2018-06-09T15:10:57.462Z,25.20
2018-06-09T15:13:25.724Z,25.00
2018-06-09T15:15:53.994Z,24.80
2018-06-09T15:18:22.425Z,24.60
2018-06-09T15:20:50.701Z,24.30
2018-06-09T15:25:46.990Z,23.90
2018-06-09T15:28:15.281Z,23.60
2018-06-09T15:30:43.535Z,23.50
2018-06-09T15:33:11.800Z,23.40
2018-06-09T15:35:40.067Z,23.30
2018-06-09T15:38:08.419Z,23.20
2018-06-09T15:40:36.693Z,23.10
2018-06-09T15:43:04.998Z,22.90
2018-06-09T15:45:33.261Z,22.80
2018-06-09T15:48:01.536Z,22.80
2018-06-09T15:50:29.802Z,22.70
2018-06-09T15:52:58.117Z,22.50
2018-06-09T15:55:26.405Z,22.40
2018-06-09T15:57:54.675Z,22.40
2018-06-09T16:00:22.976Z,22.40
2018-06-09T16:02:52.138Z,22.40
2018-06-09T16:05:20.874Z,22.40
2018-06-09T16:07:49.129Z,22.20
2018-06-09T16:10:18.046Z,22.10
2018-06-09T16:12:46.310Z,22.00
2018-06-09T16:15:15.395Z,21.80
2018-06-09T16:17:44.186Z,21.90
2018-06-09T16:20:12.541Z,21.90
2018-06-09T16:22:40.858Z,21.90
2018-06-09T16:25:09.203Z,21.80
2018-06-09T16:27:37.459Z,21.80
2018-06-09T16:30:05.751Z,21.90
2018-06-09T16:32:34.004Z,21.90
2018-06-09T16:37:30.382Z,21.90
2018-06-09T16:39:58.678Z,22.00
2018-06-09T16:42:26.974Z,22.00
2018-06-09T16:44:55.271Z,22.00
2018-06-09T16:47:23.544Z,21.80
2018-06-09T16:49:51.810Z,21.80
2018-06-09T16:52:20.074Z,21.80
2018-06-09T16:54:48.459Z,21.80
2018-06-09T16:57:16.834Z,21.70
2018-06-09T16:59:45.284Z,21.60
2018-06-09T17:02:13.566Z,21.50
2018-06-09T17:04:41.836Z,21.40
2018-06-09T17:07:10.938Z,21.30
2018-06-09T17:09:39.206Z,21.30
2018-06-09T17:12:07.522Z,21.30
2018-06-09T17:14:35.790Z,21.30
2018-06-09T17:17:04.203Z,21.30
2018-06-09T17:19:32.494Z,21.20
2018-06-09T17:22:00.792Z,21.10
2018-06-09T17:24:29.106Z,21.00
2018-06-09T17:26:57.420Z,21.10
2018-06-09T17:29:25.699Z,21.10
2018-06-09T17:31:54.016Z,21.10
2018-06-09T17:34:22.287Z,21.10
2018-06-09T17:36:50.645Z,21.10
2018-06-09T17:39:18.986Z,21.00
2018-06-09T17:41:47.272Z,20.90
2018-06-09T17:44:15.558Z,20.90
2018-06-09T17:46:43.924Z,20.90
2018-06-09T17:49:12.224Z,20.80
2018-06-09T17:51:40.555Z,20.80
2018-06-09T17:54:08.829Z,20.70
2018-06-09T17:56:37.110Z,20.70
2018-06-09T17:59:06.271Z,20.60
2018-06-09T18:01:34.558Z,20.50
2018-06-09T18:04:02.832Z,20.60
2018-06-09T18:06:32.927Z,20.60
2018-06-09T18:09:01.191Z,20.60
2018-06-09T18:11:29.474Z,20.60
2018-06-09T18:13:57.743Z,20.60
2018-06-09T18:16:26.083Z,20.50
2018-06-09T18:18:54.347Z,20.60
2018-06-09T18:21:22.613Z,20.60
2018-06-09T18:23:50.935Z,20.60
2018-06-09T18:26:19.242Z,20.60
2018-06-09T18:28:47.502Z,20.60
2018-06-09T18:31:15.774Z,20.60
2018-06-09T18:36:12.131Z,20.60
2018-06-09T18:38:40.415Z,20.60
2018-06-09T18:41:08.813Z,20.60
2018-06-09T18:43:37.354Z,20.60
2018-06-09T18:46:05.655Z,20.60
2018-06-09T18:48:33.958Z,20.50
2018-06-09T18:51:02.251Z,20.50
2018-06-09T18:53:30.595Z,20.40
2018-06-09T18:55:58.891Z,20.50
2018-06-09T18:58:27.240Z,20.40
2018-06-09T19:03:23.614Z,20.30
2018-06-09T19:05:51.910Z,20.30
2018-06-09T19:08:20.191Z,20.40
2018-06-09T19:10:48.511Z,20.40
2018-06-09T19:13:16.867Z,20.40
2018-06-09T19:15:45.161Z,20.40
2018-06-09T19:18:13.446Z,20.30
2018-06-09T19:20:45.672Z,20.30
2018-06-09T19:23:13.943Z,20.30
2018-06-09T19:25:42.267Z,20.30
2018-06-09T19:28:10.591Z,20.20
2018-06-09T19:30:38.907Z,20.20
2018-06-09T19:33:07.219Z,20.20
2018-06-09T19:35:35.515Z,20.20
2018-06-09T19:38:03.854Z,20.10
2018-06-09T19:40:32.186Z,20.10
2018-06-09T19:43:00.491Z,20.20
2018-06-09T19:45:28.770Z,20.10
2018-06-09T19:47:57.075Z,20.10
2018-06-09T19:50:25.387Z,20.10
2018-06-09T19:52:53.660Z,20.00
2018-06-09T19:55:21.947Z,20.00
2018-06-09T19:57:50.299Z,19.90
2018-06-09T20:00:18.594Z,19.80
2018-06-09T20:02:46.882Z,19.80
2018-06-09T20:05:15.167Z,19.70
2018-06-09T20:07:43.470Z,19.70
2018-06-09T20:10:11.750Z,19.60
2018-06-09T20:12:40.086Z,19.60
2018-06-09T20:15:08.519Z,19.70
2018-06-09T20:17:36.785Z,19.70
2018-06-09T20:20:05.121Z,19.70
2018-06-09T20:25:01.440Z,19.70
2018-06-09T20:29:57.692Z,19.60
2018-06-09T20:32:26.233Z,19.70
2018-06-09T20:34:54.723Z,19.70
2018-06-09T20:37:23.080Z,19.60
2018-06-09T20:39:51.344Z,19.60
2018-06-09T20:42:19.647Z,19.50
2018-06-09T20:44:47.930Z,19.40
2018-06-09T20:47:16.229Z,19.40
2018-06-09T20:49:44.528Z,19.40
2018-06-09T20:52:12.803Z,19.40
2018-06-09T20:54:41.182Z,19.40
2018-06-09T20:57:09.489Z,19.40
2018-06-09T20:59:38.405Z,19.30
2018-06-09T21:02:06.715Z,19.30
2018-06-09T21:07:03.019Z,19.40
2018-06-09T21:09:31.636Z,19.40
2018-06-09T21:11:59.944Z,19.40
2018-06-09T21:14:28.223Z,19.50
2018-06-09T21:16:56.656Z,19.40
2018-06-09T21:19:25.008Z,19.40
2018-06-09T21:21:53.458Z,19.40
2018-06-09T21:24:21.805Z,19.40
2018-06-09T21:26:55.528Z,19.30
2018-06-09T21:29:29.254Z,19.30
2018-06-09T21:32:01.754Z,19.30
2018-06-09T21:34:46.959Z,19.30
2018-06-09T21:37:15.218Z,19.30
2018-06-09T21:39:48.924Z,19.30
2018-06-09T21:42:22.593Z,19.40
2018-06-09T21:44:56.266Z,19.30
2018-06-09T21:47:24.519Z,19.30
2018-06-09T21:49:52.775Z,19.40
2018-06-09T21:52:22.777Z,19.40
2018-06-09T21:54:51.031Z,19.30
2018-06-09T21:57:19.350Z,19.20
2018-06-09T21:59:47.612Z,19.10
2018-06-09T22:02:15.876Z,19.10
2018-06-09T22:04:44.153Z,19.10
2018-06-09T22:07:12.395Z,19.00
2018-06-09T22:09:40.642Z,19.00
2018-06-09T22:12:08.909Z,18.90
2018-06-09T22:14:37.169Z,18.80
2018-06-09T22:17:05.442Z,18.80
2018-06-09T22:19:33.744Z,18.80
2018-06-09T22:22:01.974Z,18.70
2018-06-09T22:24:30.232Z,18.70
2018-06-09T22:26:58.615Z,18.70
2018-06-09T22:29:26.872Z,18.60
2018-06-09T22:31:55.164Z,18.60
2018-06-09T22:34:23.422Z,18.50
2018-06-09T22:36:51.698Z,18.50
2018-06-09T22:39:19.960Z,18.50
2018-06-09T22:41:48.248Z,18.40
2018-06-09T22:44:16.543Z,18.40
2018-06-09T22:46:44.833Z,18.40
2018-06-09T22:49:13.090Z,18.30
2018-06-09T22:51:41.453Z,18.30
2018-06-09T22:54:09.702Z,18.20
2018-06-09T22:56:38.053Z,18.20
2018-06-09T22:59:06.299Z,18.20
2018-06-09T23:01:34.546Z,18.20
2018-06-09T23:04:02.803Z,18.10
2018-06-09T23:06:31.055Z,18.20
2018-06-09T23:08:59.308Z,18.30
2018-06-09T23:11:27.560Z,18.20
2018-06-09T23:13:55.857Z,18.20
2018-06-09T23:16:24.143Z,18.30
2018-06-09T23:18:52.403Z,18.20
2018-06-09T23:21:20.672Z,18.20
2018-06-09T23:23:48.933Z,18.30
2018-06-09T23:26:17.189Z,18.30
2018-06-09T23:28:45.534Z,18.30
2018-06-09T23:31:13.791Z,18.30
2018-06-09T23:33:42.068Z,18.20
2018-06-09T23:36:10.322Z,18.20
2018-06-09T23:38:38.570Z,18.30
2018-06-09T23:41:06.835Z,18.20
2018-06-09T23:43:35.095Z,18.10
2018-06-09T23:46:03.349Z,18.10
2018-06-09T23:48:31.608Z,18.20
2018-06-09T23:50:59.873Z,18.10
2018-06-09T23:53:28.134Z,18.20
2018-06-09T23:55:56.387Z,18.20
2018-06-09T23:58:24.756Z,18.20
